METAR stanice u blizini

 

LYBE - Beograd / Surčin, Srbija
Ažurirano: 24/04/2024 19:30
Few Clouds
Few Clouds
 Pravac vetra ZSZ
Vetar: ZSZ 17 km/h
Temperatura: 10°C
Osećaj hladnoće: 8°C
Tačka rose: 7°C
Vlažnost: 82%
Pritisak: 1007 hPa
Oblaci: Few Clouds
Vidljivost: 10 km
Cloud details: Few Clouds 1372 m
2024/04/24 17:30 LYBE 241730Z 30009KT 9999 FEW045 10/07 Q1007 NOSIG
LYBT - Beograd / Batajnica, Srbija
Ažurirano: 24/04/2024 19:30
Mostly Cloudy
Mostly Cloudy
 Pravac vetra SSZ
Vetar: SSZ 17 km/h
Temperatura: 10°C
Osećaj hladnoće: 8°C
Tačka rose: 8°C
Vlažnost: 88%
Pritisak: 1007 hPa
Oblaci: Mostly Cloudy
Vidljivost: 10 km
Cloud details: Few Clouds 549 m
Mostly Cloudy 762 m
2024/04/24 17:30 LYBT 241730Z 33009KT 9999 FEW018 BKN025 10/08 Q1007 NOSIG
LYVR - Vršac, Srbija
Ažurirano: 24/04/2024 19:30
Vedro
Vedro
 Pravac vetra ISI
Vetar: ISI 7 km/h
Temperatura: 9°C
Osećaj hladnoće: 8°C
Tačka rose: 9°C
Vlažnost: 100%
Pritisak: 1007 hPa
Pregled: Vedro
Vidljivost: greater than 10 km
2024/04/24 17:30 LYVR 241730Z AUTO 07004KT CAVOK 09/09 Q1007
 
LYKV - Lađevci, Srbija
Ažurirano: 24/04/2024 19:30
Partly Cloudy
Partly Cloudy
 Pravac vetra SSI
Vetar: SSI 11 km/h
Temperatura: 14°C
Tačka rose: 5°C
Vlažnost: 55%
Pritisak: 1005 hPa
Oblaci: Partly Cloudy
Vidljivost: 10 km
Cloud details: Partly Cloudy 1433 m
2024/04/24 17:30 LYKV 241730Z 02006KT 340V050 9999 SCT047 14/05 Q1005 NOSIG
LYNI - Niš, Srbija
Ažurirano: 24/04/2024 19:30
Partly Cloudy
Partly Cloudy
 Pravac vetra SSZ
Vetar: SSZ 7 km/h
Temperatura: 17°C
Tačka rose: 0°C
Vlažnost: 32%
Pritisak: 1005 hPa
Oblaci: Partly Cloudy
Vidljivost: 10 km
Cloud details: Partly Cloudy 1829 m
2024/04/24 17:30 LYNI 241730Z 33004KT 310V010 9999 SCT060 17/00 Q1005 NOSIG
BKPR - Priština, Srbija
Ažurirano: 24/04/2024 20:00
Vedro
Vedro
 Pravac vetra ZJZ
Vetar: ZJZ 37 km/h
Temperatura: 13°C
Tačka rose: 1°C
Vlažnost: 44%
Pritisak: 1005 hPa
Pregled: Vedro
Vidljivost: greater than 10 km
2024/04/24 18:00 BKPR 241800Z 24020KT CAVOK 13/01 Q1005 NOSIG
 
LHPP - Pecs / Pogany, Hungary
Ažurirano: 24/04/2024 19:15
Mostly Cloudy
Mostly Cloudy
 Pravac vetra Z
Vetar: Z 9 km/h
Temperatura: 7°C
Osećaj hladnoće: 6°C
Tačka rose: 4°C
Vlažnost: 81%
Pritisak: 1007 hPa
Oblaci: Mostly Cloudy
Vidljivost: 10 km
Cloud details: Mostly Cloudy 610 m
2024/04/24 17:15 LHPP 241715Z AUTO 28005KT 9999 BKN020 07/04 Q1007
LHUD - Szeged, Hungary
Ažurirano: 04/07/2019 01:45
NOT Current
Vedro
Vedro
 Pravac vetra S
Vetar: S 7 km/h
Temperatura: 18°C
Tačka rose: 13°C
Vlažnost: 73%
Pritisak: 1019 hPa
Pregled: Vedro
Vidljivost: greater than 10 km
2019/07/03 23:45 LHUD 032345Z 35004KT CAVOK 18/13 Q1019
LRTR - Timisoara, Romania
Ažurirano: 24/04/2024 19:30
Partly Cloudy
Partly Cloudy
 Pravac vetra JZ
Vetar: JZ 6 km/h
Temperatura: 10°C
Tačka rose: 10°C
Vlažnost: 100%
Pritisak: 1006 hPa
Oblaci: Partly Cloudy
Vidljivost: 10 km
Cloud details: Partly Cloudy 518 m
Partly Cloudy 1219 m
2024/04/24 17:30 LRTR 241730Z 22003KT 9999 SCT017 SCT040 10/10 Q1006
 
LRCV - Craiova, Romania
Ažurirano: 24/04/2024 19:30
Vedro
Vedro
 Pravac vetra JJI
Vetar: JJI 6 km/h
Temperatura: 16°C
Tačka rose: 9°C
Vlažnost: 63%
Pritisak: 1003 hPa
Pregled: Vedro
Vidljivost: greater than 10 km
2024/04/24 17:30 LRCV 241730Z 15003KT CAVOK 16/09 Q1003
LBSF - Sofia, Bulgaria
Ažurirano: 24/04/2024 19:30
Few Clouds
Few Clouds
 Pravac vetra ZJZ
Vetar: ZJZ 28 km/h
Temperatura: 18°C
Tačka rose: 2°C
Vlažnost: 34%
Pritisak: 1004 hPa
Oblaci: Few Clouds
Vidljivost: 10 km
Cloud details: Few Clouds 488 m
2024/04/24 17:30 LBSF 241730Z AUTO 24015KT 9999 FEW016/// 18/02 Q1004 NOSIG
LWSK - Skoplje, Makedonija
Ažurirano: 24/04/2024 19:50
Vedro
Vedro
 Pravac vetra SZ
Vetar: SZ 7 km/h
Temperatura: 14°C
Tačka rose: 5°C
Vlažnost: 55%
Pritisak: 1004 hPa
Pregled: Vedro
Vidljivost: greater than 10 km
2024/04/24 17:50 LWSK 241750Z 32004KT CAVOK 14/05 Q1004 NOSIG
 
LYPG - Podgorica, Crna Gora
Ažurirano: 24/04/2024 19:30
Mostly Cloudy
Mostly Cloudy
 Pravac vetra ZJZ
Vetar: ZJZ 15 km/h
Temperatura: 13°C
Tačka rose: 6°C
Vlažnost: 63%
Pritisak: 1008 hPa
Oblaci: Mostly Cloudy
Vidljivost: 10 km
Cloud details: Few Clouds 1006 m
Mostly Cloudy 2134 m
2024/04/24 17:30 LYPG 241730Z 25008KT 9999 FEW033 BKN070 13/06 Q1008 NOSIG
LQSA - Sarajevo, Bosna i Hercegovina
Ažurirano: 24/04/2024 19:30
Mostly Cloudy
Mostly Cloudy
 Pravac vetra calm
Vetar: Tišina
Temperatura: 7°C
Tačka rose: 5°C
Vlažnost: 87%
Pritisak: 1007 hPa
Oblaci: Mostly Cloudy
Vidljivost: 10 km
Cloud details: Few Clouds 610 m
Mostly Cloudy 1219 m
2024/04/24 17:30 LQSA 241730Z 00000KT 9999 FEW020 BKN040 07/05 Q1007 NOSIG
LDOS - Osijek, Hrvatksa
Ažurirano: 24/04/2024 19:30
Partly Cloudy
Partly Cloudy
 Pravac vetra ZSZ
Vetar: ZSZ 13 km/h
Temperatura: 8°C
Osećaj hladnoće: 6°C
Tačka rose: 5°C
Vlažnost: 82%
Pritisak: 1007 hPa
Oblaci: Partly Cloudy
Vidljivost: 10 km
Cloud details: Partly Cloudy 1311 m
2024/04/24 17:30 LDOS 241730Z 29007KT 9999 SCT043 08/05 Q1007